createdAt,value
2023-02-22T00:01:21.807Z,56.80
2023-02-22T00:03:49.060Z,62.05
2023-02-22T00:06:16.999Z,52.78
2023-02-22T00:08:43.539Z,60.47
2023-02-22T00:11:09.999Z,64.40
2023-02-22T00:13:36.988Z,63.92
2023-02-22T00:16:03.778Z,59.67
2023-02-22T00:18:30.127Z,62.38
2023-02-22T00:20:59.921Z,61.55
2023-02-22T00:23:28.419Z,61.15
2023-02-22T00:25:55.574Z,62.63
2023-02-22T00:28:24.194Z,57.13
2023-02-22T00:30:51.084Z,55.65
2023-02-22T00:33:17.864Z,54.67
2023-02-22T00:35:45.832Z,56.80
2023-02-22T00:38:13.226Z,57.25
2023-02-22T00:40:40.190Z,53.47
2023-02-22T00:43:07.122Z,50.08
2023-02-22T00:45:34.507Z,44.85
2023-02-22T00:48:01.490Z,45.70
2023-02-22T00:50:28.804Z,36.15
2023-02-22T00:52:56.413Z,53.90
2023-02-22T00:55:33.234Z,51.50
2023-02-22T00:57:59.722Z,51.55
2023-02-22T01:00:27.605Z,50.22
2023-02-22T01:02:55.933Z,53.38
2023-02-22T01:05:23.820Z,57.58
2023-02-22T01:07:50.673Z,53.05
2023-02-22T01:10:19.446Z,52.97
2023-02-22T01:12:49.938Z,57.55
2023-02-22T01:15:21.606Z,66.53
2023-02-22T01:17:48.649Z,64.38
2023-02-22T01:20:15.754Z,73.95
2023-02-22T01:22:43.366Z,75.57
2023-02-22T01:25:10.723Z,61.72
2023-02-22T01:27:38.417Z,63.50
2023-02-22T01:30:08.594Z,65.75
2023-02-22T01:32:39.260Z,64.97
2023-02-22T01:35:08.535Z,62.13
2023-02-22T01:37:35.513Z,57.13
2023-02-22T01:40:02.135Z,53.05
2023-02-22T01:42:29.527Z,53.63
2023-02-22T01:45:14.902Z,53.17
2023-02-22T01:47:41.410Z,50.53
2023-02-22T01:50:10.623Z,51.97
2023-02-22T01:52:37.405Z,48.78
2023-02-22T01:55:03.925Z,49.60
2023-02-22T01:57:35.132Z,48.10
2023-02-22T02:00:12.126Z,46.08
2023-02-22T02:02:48.070Z,53.58
2023-02-22T02:05:14.554Z,47.10
2023-02-22T02:07:41.315Z,48.08
2023-02-22T02:10:14.216Z,46.00
2023-02-22T02:12:42.957Z,46.70
2023-02-22T02:15:25.227Z,46.63
2023-02-22T02:17:53.047Z,50.28
2023-02-22T02:20:27.202Z,50.60
2023-02-22T02:23:08.856Z,54.67
2023-02-22T02:25:35.231Z,46.42
2023-02-22T02:28:02.185Z,49.28
2023-02-22T02:30:28.649Z,51.78
2023-02-22T02:32:56.400Z,51.83
2023-02-22T02:35:28.590Z,45.25
2023-02-22T02:37:57.748Z,51.25
2023-02-22T02:40:30.381Z,51.83
2023-02-22T02:43:15.225Z,55.05
2023-02-22T02:45:48.102Z,56.70
2023-02-22T02:48:15.649Z,51.92
2023-02-22T02:50:48.198Z,60.53
2023-02-22T02:53:17.158Z,56.40
2023-02-22T02:55:43.674Z,53.75
2023-02-22T02:58:16.361Z,40.33
2023-02-22T03:00:42.969Z,51.80
2023-02-22T03:03:10.355Z,57.70
2023-02-22T03:05:55.447Z,52.50
2023-02-22T03:08:30.848Z,50.25
2023-02-22T03:11:01.721Z,55.75
2023-02-22T03:13:40.218Z,58.28
2023-02-22T03:16:06.558Z,60.83
2023-02-22T03:18:35.688Z,52.42
2023-02-22T03:21:14.356Z,62.97
2023-02-22T03:23:46.929Z,61.22
2023-02-22T03:26:14.955Z,68.65
2023-02-22T03:28:43.006Z,62.35
2023-02-22T03:31:12.958Z,58.75
2023-02-22T03:33:42.122Z,59.17
2023-02-22T03:36:16.078Z,51.38
2023-02-22T03:38:43.495Z,60.05
2023-02-22T03:41:10.169Z,40.08
2023-02-22T03:43:39.055Z,53.65
2023-02-22T03:46:06.104Z,61.53
2023-02-22T03:48:51.389Z,62.03
2023-02-22T03:51:18.837Z,71.35
2023-02-22T03:53:45.481Z,64.88
2023-02-22T03:56:14.996Z,62.63
2023-02-22T03:58:44.207Z,58.92
2023-02-22T04:01:11.093Z,58.95
2023-02-22T04:03:37.544Z,54.67
2023-02-22T04:06:04.025Z,53.05
2023-02-22T04:08:30.450Z,42.90
2023-02-22T04:10:56.845Z,58.72
2023-02-22T04:13:23.281Z,52.88
2023-02-22T04:15:49.689Z,53.38
2023-02-22T04:18:16.249Z,51.65
2023-02-22T04:20:43.231Z,52.85
2023-02-22T04:23:09.590Z,53.40
2023-02-22T04:25:36.031Z,50.75
2023-02-22T04:28:02.708Z,44.05
2023-02-22T04:30:30.247Z,50.22
2023-02-22T04:32:56.990Z,50.13
2023-02-22T04:35:23.727Z,45.22
2023-02-22T04:37:50.096Z,49.15
2023-02-22T04:40:16.877Z,52.47
2023-02-22T04:42:43.236Z,51.95
2023-02-22T04:45:10.019Z,52.33
2023-02-22T04:47:36.910Z,49.70
2023-02-22T04:50:04.767Z,53.75
2023-02-22T04:52:31.168Z,50.20
2023-02-22T04:54:57.558Z,47.42
2023-02-22T04:57:23.999Z,44.30
2023-02-22T04:59:51.179Z,46.80
2023-02-22T05:02:18.264Z,48.75
2023-02-22T05:04:45.214Z,55.38
2023-02-22T05:07:11.671Z,48.83
2023-02-22T05:09:38.033Z,51.85
2023-02-22T05:12:04.649Z,55.92
2023-02-22T05:14:30.991Z,49.97
2023-02-22T05:16:57.697Z,53.05
2023-02-22T05:19:24.478Z,48.05
2023-02-22T05:21:50.824Z,45.55
2023-02-22T05:24:17.373Z,52.75
2023-02-22T05:26:44.135Z,52.10
2023-02-22T05:29:10.508Z,49.40
2023-02-22T05:31:37.003Z,46.95
2023-02-22T05:34:03.410Z,51.08
2023-02-22T05:36:29.778Z,53.90
2023-02-22T05:38:56.149Z,52.20
2023-02-22T05:41:22.562Z,55.85
2023-02-22T05:43:48.912Z,54.83
2023-02-22T05:46:15.556Z,43.17
2023-02-22T05:48:41.973Z,38.42
2023-02-22T05:51:10.652Z,53.85
2023-02-22T05:53:37.583Z,53.70
2023-02-22T05:56:04.153Z,53.50
2023-02-22T05:58:30.667Z,50.10
2023-02-22T06:00:56.990Z,49.53
2023-02-22T06:03:23.377Z,52.22
2023-02-22T06:05:49.887Z,45.88
2023-02-22T06:08:18.020Z,43.95
2023-02-22T06:10:44.606Z,45.03
2023-02-22T06:13:10.982Z,37.00
2023-02-22T06:15:37.421Z,44.03
2023-02-22T06:18:03.897Z,38.05
2023-02-22T06:20:30.469Z,40.08
2023-02-22T06:22:58.429Z,43.95
2023-02-22T06:25:26.360Z,29.67
2023-02-22T06:27:52.993Z,39.22
2023-02-22T06:30:21.750Z,43.92
2023-02-22T06:32:48.268Z,41.72
2023-02-22T06:35:14.843Z,28.75
2023-02-22T06:37:41.224Z,33.67
2023-02-22T06:40:08.239Z,42.15
2023-02-22T06:42:34.662Z,34.08
2023-02-22T06:45:01.077Z,27.13
2023-02-22T06:47:27.525Z,31.63
2023-02-22T06:49:54.717Z,31.90
2023-02-22T06:52:21.518Z,31.83
2023-02-22T06:54:47.879Z,28.83
2023-02-22T06:57:14.221Z,31.08
2023-02-22T06:59:40.772Z,32.30
2023-02-22T07:02:07.084Z,29.70
2023-02-22T07:04:33.455Z,33.17
2023-02-22T07:07:00.202Z,21.48
2023-02-22T07:09:26.667Z,27.92
2023-02-22T07:11:52.989Z,22.70
2023-02-22T07:14:19.398Z,25.15
2023-02-22T07:16:45.731Z,30.23
2023-02-22T07:19:12.067Z,29.17
2023-02-22T07:21:38.469Z,27.30
2023-02-22T07:24:05.562Z,32.35
2023-02-22T07:26:38.000Z,27.70
2023-02-22T07:29:04.445Z,22.75
2023-02-22T07:31:34.777Z,29.88
2023-02-22T07:34:01.172Z,25.00
2023-02-22T07:36:27.510Z,21.40
2023-02-22T07:38:53.847Z,27.95
2023-02-22T07:41:20.242Z,27.50
2023-02-22T07:43:46.635Z,26.17
2023-02-22T07:46:12.978Z,28.42
2023-02-22T07:48:39.649Z,27.90
2023-02-22T07:51:06.127Z,30.90
2023-02-22T07:53:33.569Z,30.92
2023-02-22T07:56:01.249Z,27.52
2023-02-22T07:58:29.197Z,24.65
2023-02-22T08:00:55.604Z,26.70
2023-02-22T08:03:23.185Z,25.02
2023-02-22T08:05:53.440Z,32.63
2023-02-22T08:08:20.219Z,26.52
2023-02-22T08:10:46.964Z,31.42
2023-02-22T08:13:13.412Z,23.95
2023-02-22T08:15:40.643Z,30.58
2023-02-22T08:18:12.001Z,29.85
2023-02-22T08:20:39.204Z,24.70
2023-02-22T08:23:06.400Z,25.15
2023-02-22T08:25:33.133Z,32.03
2023-02-22T08:28:04.696Z,21.58
2023-02-22T08:30:32.359Z,24.38
2023-02-22T08:32:59.520Z,21.35
2023-02-22T08:35:27.400Z,23.45
2023-02-22T08:37:55.641Z,28.38
2023-02-22T08:40:23.204Z,20.30
2023-02-22T08:42:49.686Z,27.23
2023-02-22T08:45:16.570Z,26.90
2023-02-22T08:47:43.226Z,26.25
2023-02-22T08:50:11.370Z,23.73
2023-02-22T08:52:37.744Z,23.83
2023-02-22T08:55:04.280Z,23.27
2023-02-22T08:57:31.781Z,24.58
2023-02-22T08:59:58.373Z,26.33
2023-02-22T09:02:25.039Z,20.45
2023-02-22T09:04:51.377Z,26.10
2023-02-22T09:07:17.954Z,23.75
2023-02-22T09:09:44.658Z,22.70
2023-02-22T09:12:11.479Z,23.83
2023-02-22T09:14:37.899Z,17.83
2023-02-22T09:17:05.828Z,24.10
2023-02-22T09:19:32.345Z,23.85
2023-02-22T09:22:00.065Z,22.42
2023-02-22T09:24:26.858Z,16.77
2023-02-22T09:26:56.458Z,18.02
2023-02-22T09:29:24.248Z,28.15
2023-02-22T09:31:52.026Z,26.60
2023-02-22T09:34:20.115Z,27.15
2023-02-22T09:36:47.745Z,24.05
2023-02-22T09:39:15.441Z,23.67
2023-02-22T09:41:44.567Z,20.13
2023-02-22T09:44:19.444Z,16.40
2023-02-22T09:46:47.263Z,26.23
2023-02-22T09:49:19.541Z,22.27
2023-02-22T09:51:49.362Z,21.20
2023-02-22T09:54:45.144Z,18.67
2023-02-22T09:57:22.786Z,24.98
2023-02-22T10:00:13.301Z,22.48
2023-02-22T10:02:44.410Z,15.18
2023-02-22T10:05:17.815Z,19.60
2023-02-22T10:07:47.580Z,22.33
2023-02-22T10:10:24.398Z,26.17
2023-02-22T10:12:53.474Z,25.30
2023-02-22T10:15:29.976Z,25.60
2023-02-22T10:18:03.548Z,22.98
2023-02-22T10:20:45.439Z,26.33
2023-02-22T10:23:15.977Z,26.08
2023-02-22T10:25:43.695Z,22.40
2023-02-22T10:28:13.296Z,24.52
2023-02-22T10:30:42.205Z,29.02
2023-02-22T10:33:08.519Z,25.40
2023-02-22T10:35:36.127Z,25.15
2023-02-22T10:38:23.581Z,24.83
2023-02-22T10:41:03.169Z,24.60
2023-02-22T10:43:30.229Z,27.38
2023-02-22T10:46:00.396Z,26.17
2023-02-22T10:48:27.536Z,24.38
2023-02-22T10:50:57.343Z,23.40
2023-02-22T10:53:23.774Z,24.02
2023-02-22T10:56:12.680Z,25.50
2023-02-22T10:58:44.974Z,23.75
2023-02-22T11:01:18.877Z,20.08
2023-02-22T11:03:45.617Z,23.23
2023-02-22T11:06:21.703Z,22.52
2023-02-22T11:08:51.413Z,24.70
2023-02-22T11:11:25.686Z,19.50
2023-02-22T11:13:56.147Z,20.80
2023-02-22T11:16:31.484Z,21.55
2023-02-22T11:19:02.167Z,24.02
2023-02-22T11:21:30.535Z,18.83
2023-02-22T11:24:04.850Z,21.73
2023-02-22T11:26:37.558Z,19.95
2023-02-22T11:29:09.410Z,20.35
2023-02-22T11:31:41.521Z,21.25
2023-02-22T11:34:24.340Z,21.05
2023-02-22T11:36:51.193Z,21.80
2023-02-22T11:39:22.288Z,19.63
2023-02-22T11:41:51.447Z,20.65
2023-02-22T11:44:44.990Z,22.38
2023-02-22T11:47:12.057Z,21.95
2023-02-22T11:49:43.117Z,22.60
2023-02-22T11:52:15.658Z,19.98
2023-02-22T11:55:08.031Z,23.30
2023-02-22T11:57:36.163Z,18.75
2023-02-22T12:00:24.722Z,21.58
2023-02-22T12:03:06.381Z,21.27
2023-02-22T12:05:59.534Z,18.83
2023-02-22T12:08:44.960Z,22.42
2023-02-22T12:11:18.160Z,19.60
2023-02-22T12:13:44.560Z,11.98
2023-02-22T12:16:29.541Z,20.23
2023-02-22T12:19:05.354Z,18.65
2023-02-22T12:21:32.073Z,18.27
2023-02-22T12:24:07.407Z,26.23
2023-02-22T12:26:39.297Z,24.10
2023-02-22T12:29:12.281Z,21.58
2023-02-22T12:31:45.489Z,24.85
2023-02-22T12:34:17.669Z,26.85
2023-02-22T12:36:46.965Z,22.90
2023-02-22T12:39:28.471Z,20.75
2023-02-22T12:41:56.035Z,19.50
2023-02-22T12:44:30.484Z,21.50
2023-02-22T12:46:58.311Z,14.05
2023-02-22T12:49:36.282Z,23.38
2023-02-22T12:52:21.537Z,21.83
2023-02-22T12:54:51.517Z,20.65
2023-02-22T12:57:24.090Z,24.13
2023-02-22T12:59:53.194Z,26.20
2023-02-22T13:02:25.592Z,26.00
2023-02-22T13:04:51.999Z,24.33
2023-02-22T13:07:22.482Z,22.48
2023-02-22T13:10:09.126Z,21.35
2023-02-22T13:12:42.242Z,26.42
2023-02-22T13:15:17.854Z,24.73
2023-02-22T13:17:53.081Z,23.40
2023-02-22T13:20:25.370Z,23.30
2023-02-22T13:23:12.197Z,23.77
2023-02-22T13:25:41.603Z,25.17
2023-02-22T13:28:10.866Z,22.85
2023-02-22T13:31:04.699Z,30.65
2023-02-22T13:33:38.327Z,26.60
2023-02-22T13:36:09.431Z,24.65
2023-02-22T13:38:54.278Z,25.23
2023-02-22T13:41:28.394Z,26.38
2023-02-22T13:44:15.145Z,26.73
2023-02-22T13:46:54.904Z,25.70
2023-02-22T13:49:47.739Z,25.70
2023-02-22T13:52:21.842Z,25.38
2023-02-22T13:54:54.810Z,26.33
2023-02-22T13:57:27.947Z,23.20
2023-02-22T14:00:13.375Z,29.42
2023-02-22T14:02:57.945Z,27.87
2023-02-22T14:05:49.653Z,24.52
2023-02-22T14:08:18.936Z,30.00
2023-02-22T14:10:48.444Z,26.33
2023-02-22T14:13:17.087Z,25.52
2023-02-22T14:16:05.098Z,29.00
2023-02-22T14:18:40.762Z,24.77
2023-02-22T14:21:07.147Z,24.38
2023-02-22T14:23:35.336Z,29.73
2023-02-22T14:26:11.149Z,24.60
2023-02-22T14:40:49.444Z,31.30
2023-02-22T14:43:19.903Z,29.08
2023-02-22T14:45:53.962Z,26.52
2023-02-22T14:48:22.303Z,25.75
2023-02-22T14:50:53.515Z,27.55
2023-02-22T14:53:34.643Z,27.10
2023-02-22T14:56:02.880Z,24.55
2023-02-22T14:58:42.629Z,26.40
2023-02-22T15:01:20.139Z,27.10
2023-02-22T15:03:51.357Z,29.08
2023-02-22T15:06:21.912Z,29.23
2023-02-22T15:08:49.103Z,31.35
2023-02-22T15:11:23.392Z,26.48
2023-02-22T15:13:50.609Z,32.05
2023-02-22T15:16:17.493Z,34.08
2023-02-22T15:18:46.291Z,33.05
2023-02-22T15:21:17.720Z,34.42
2023-02-22T15:23:49.043Z,32.08
2023-02-22T15:26:35.836Z,30.63
2023-02-22T15:29:06.981Z,39.55
2023-02-22T15:31:34.428Z,32.33
2023-02-22T15:34:16.821Z,35.33
2023-02-22T15:36:43.963Z,43.92
2023-02-22T15:39:29.338Z,38.38
2023-02-22T15:42:04.765Z,34.17
2023-02-22T15:44:35.309Z,40.83
2023-02-22T15:47:02.478Z,38.53
2023-02-22T15:49:33.716Z,39.65
2023-02-22T15:52:05.100Z,50.13
2023-02-22T15:54:37.723Z,37.40
2023-02-22T15:57:04.132Z,43.25
2023-02-22T15:59:33.797Z,46.50
2023-02-22T16:02:00.584Z,50.40
2023-02-22T16:04:29.002Z,53.53
2023-02-22T16:07:08.135Z,59.67
2023-02-22T16:09:34.725Z,49.63
2023-02-22T16:12:30.462Z,56.17
2023-02-22T16:14:56.941Z,57.00
2023-02-22T16:17:30.751Z,53.05
2023-02-22T16:19:58.939Z,52.97
2023-02-22T16:22:28.227Z,56.17
2023-02-22T16:24:56.163Z,56.70
2023-02-22T16:27:23.877Z,52.67
2023-02-22T16:30:25.489Z,51.45
2023-02-22T16:32:53.298Z,45.47
2023-02-22T16:35:19.871Z,45.92
2023-02-22T16:37:49.346Z,45.40
2023-02-22T16:40:22.424Z,48.80
2023-02-22T16:42:48.988Z,50.13
2023-02-22T16:45:16.170Z,56.20
2023-02-22T16:47:43.236Z,51.10
2023-02-22T16:50:09.628Z,52.10
2023-02-22T16:52:38.716Z,49.67
2023-02-22T16:55:05.843Z,54.08
2023-02-22T16:57:32.467Z,48.60
2023-02-22T16:59:58.857Z,34.78
2023-02-22T17:02:25.351Z,42.95
2023-02-22T17:04:51.718Z,29.67
2023-02-22T17:07:24.000Z,34.28
2023-02-22T17:09:51.201Z,33.85
2023-02-22T17:12:17.838Z,32.88
2023-02-22T17:14:45.538Z,30.00
2023-02-22T17:17:15.463Z,22.17
2023-02-22T17:19:41.882Z,35.70
2023-02-22T17:22:15.692Z,32.33
2023-02-22T17:24:42.187Z,35.17
2023-02-22T17:27:08.934Z,28.10
2023-02-22T17:29:35.274Z,35.13
2023-02-22T17:32:02.500Z,32.03
2023-02-22T17:34:28.836Z,33.97
2023-02-22T17:36:55.346Z,31.08
2023-02-22T17:39:21.770Z,24.00
2023-02-22T17:41:55.012Z,33.35
2023-02-22T17:44:21.389Z,31.13
2023-02-22T17:46:47.705Z,26.50
2023-02-22T17:49:14.096Z,29.20
2023-02-22T17:51:40.917Z,34.22
2023-02-22T17:54:08.610Z,28.23
2023-02-22T17:56:35.793Z,33.65
2023-02-22T17:59:02.134Z,34.97
2023-02-22T18:01:30.108Z,26.23
2023-02-22T18:03:58.041Z,28.10
2023-02-22T18:06:27.242Z,36.92
2023-02-22T18:08:56.228Z,38.33
2023-02-22T18:11:26.441Z,37.80
2023-02-22T18:13:56.675Z,39.88
2023-02-22T18:16:25.513Z,40.33
2023-02-22T18:18:52.353Z,45.10
2023-02-22T18:21:18.676Z,35.90
2023-02-22T18:23:45.021Z,30.52
2023-02-22T18:26:18.818Z,38.35
2023-02-22T18:28:45.773Z,40.05
2023-02-22T18:31:16.933Z,36.30
2023-02-22T18:33:43.940Z,30.67
2023-02-22T18:36:13.334Z,37.40
2023-02-22T18:38:43.002Z,34.10
2023-02-22T18:41:11.107Z,25.85
2023-02-22T18:43:37.874Z,26.05
2023-02-22T18:46:11.800Z,34.00
2023-02-22T18:48:38.969Z,33.58
2023-02-22T18:51:06.928Z,42.60
2023-02-22T18:53:33.354Z,35.63
2023-02-22T18:56:06.753Z,35.47
2023-02-22T18:58:33.559Z,34.00
2023-02-22T19:01:03.559Z,34.58
2023-02-22T19:03:30.117Z,33.22
2023-02-22T19:06:01.063Z,37.05
2023-02-22T19:08:27.382Z,34.13
2023-02-22T19:10:53.706Z,29.77
2023-02-22T19:13:21.157Z,35.13
2023-02-22T19:15:48.958Z,35.65
2023-02-22T19:18:15.320Z,25.90
2023-02-22T19:20:41.714Z,17.17
2023-02-22T19:23:10.513Z,36.70
2023-02-22T19:25:40.392Z,27.42
2023-02-22T19:28:06.793Z,36.25
2023-02-22T19:30:33.120Z,31.95
2023-02-22T19:32:59.446Z,33.28
2023-02-22T19:35:28.767Z,30.33
2023-02-22T19:37:55.549Z,31.60
2023-02-22T19:40:23.159Z,32.63
2023-02-22T19:42:51.291Z,34.85
2023-02-22T19:45:18.606Z,31.55
2023-02-22T19:47:48.742Z,34.88
2023-02-22T19:50:15.537Z,30.50
2023-02-22T19:52:41.937Z,37.60
2023-02-22T19:55:14.798Z,28.50
2023-02-22T19:57:43.047Z,31.83
2023-02-22T20:00:11.396Z,34.72
2023-02-22T20:02:39.519Z,36.03
2023-02-22T20:05:12.349Z,33.28
2023-02-22T20:07:39.071Z,32.03
2023-02-22T20:10:05.648Z,35.70
2023-02-22T20:12:31.978Z,35.97
2023-02-22T20:14:58.607Z,36.08
2023-02-22T20:17:25.489Z,35.97
2023-02-22T20:19:53.365Z,34.72
2023-02-22T20:22:20.496Z,35.88
2023-02-22T20:24:47.549Z,36.25
2023-02-22T20:27:14.299Z,36.63
2023-02-22T20:29:40.993Z,36.88
2023-02-22T20:32:09.960Z,36.40
2023-02-22T20:34:36.441Z,38.55
2023-02-22T20:37:03.206Z,34.83
2023-02-22T20:39:29.591Z,37.03
2023-02-22T20:41:56.099Z,37.75
2023-02-22T20:44:22.544Z,38.92
2023-02-22T20:46:48.895Z,34.78
2023-02-22T20:49:17.183Z,32.80
2023-02-22T20:51:44.746Z,37.30
2023-02-22T20:54:12.100Z,34.17
2023-02-22T20:56:42.638Z,36.65
2023-02-22T20:59:10.979Z,40.35
2023-02-22T21:01:37.328Z,24.88
2023-02-22T21:04:04.951Z,35.78
2023-02-22T21:06:31.351Z,34.08
2023-02-22T21:08:59.677Z,32.90
2023-02-22T21:11:27.368Z,31.60
2023-02-22T21:13:53.992Z,35.20
2023-02-22T21:16:21.947Z,34.45
2023-02-22T21:18:58.495Z,35.92
2023-02-22T21:21:25.683Z,36.22
2023-02-22T21:23:53.562Z,35.35
2023-02-22T21:26:23.523Z,34.10
2023-02-22T21:28:51.815Z,37.45
2023-02-22T21:31:19.646Z,32.08
2023-02-22T21:33:48.198Z,32.88
2023-02-22T21:36:14.788Z,37.70
2023-02-22T21:38:41.935Z,34.95
2023-02-22T21:41:11.884Z,35.17
2023-02-22T21:43:38.311Z,38.72
2023-02-22T21:46:05.380Z,38.38
2023-02-22T21:48:31.774Z,38.63
2023-02-22T21:50:58.296Z,36.72
2023-02-22T21:53:24.649Z,42.97
2023-02-22T21:55:51.089Z,38.10
2023-02-22T21:58:17.425Z,39.47
2023-02-22T22:00:43.968Z,36.38
2023-02-22T22:03:16.964Z,40.20
2023-02-22T22:05:45.248Z,41.10
2023-02-22T22:08:31.673Z,39.40
2023-02-22T22:10:58.445Z,36.15
2023-02-22T22:13:26.720Z,40.10
2023-02-22T22:15:53.169Z,42.45
2023-02-22T22:18:19.601Z,35.88
2023-02-22T22:20:46.006Z,40.40
2023-02-22T22:23:15.080Z,36.88
2023-02-22T22:25:41.577Z,37.03
2023-02-22T22:28:09.511Z,44.72
2023-02-22T22:30:37.073Z,23.48
2023-02-22T22:33:05.461Z,44.17
2023-02-22T22:35:33.441Z,33.85
2023-02-22T22:38:00.656Z,38.05
2023-02-22T22:40:27.557Z,45.78
2023-02-22T22:42:53.874Z,37.38
2023-02-22T22:45:20.303Z,38.60
2023-02-22T22:47:46.814Z,34.95
2023-02-22T22:50:14.109Z,43.17
2023-02-22T22:52:44.081Z,44.75
2023-02-22T22:55:12.158Z,37.03
2023-02-22T22:57:39.470Z,38.65
2023-02-22T23:00:43.559Z,38.17
2023-02-22T23:03:16.510Z,38.15
2023-02-22T23:05:43.057Z,36.70
2023-02-22T23:08:10.984Z,41.88
2023-02-22T23:10:40.976Z,41.38
2023-02-22T23:13:10.494Z,44.20
2023-02-22T23:15:40.846Z,39.03
2023-02-22T23:18:07.465Z,40.63
2023-02-22T23:20:38.616Z,39.28
2023-02-22T23:23:06.074Z,35.63
2023-02-22T23:25:39.043Z,39.80
2023-02-22T23:28:14.759Z,39.42
2023-02-22T23:33:08.012Z,41.72
2023-02-22T23:35:34.965Z,44.20
2023-02-22T23:38:08.105Z,40.78
2023-02-22T23:40:35.941Z,38.30
2023-02-22T23:43:04.187Z,41.92
2023-02-22T23:45:34.042Z,38.63
2023-02-22T23:48:01.680Z,43.90
2023-02-22T23:50:29.361Z,41.03
2023-02-22T23:52:57.012Z,39.47
2023-02-22T23:55:24.351Z,41.17
2023-02-22T23:57:51.090Z,42.58
